Time;durP1;ratioP1;P1;durP2;ratioP2;P2;SDS_P1;SDS_P2;PMS_P1;PMS_P2;Temp;Humidity;BMP_temperature;BMP_pressure;BME280_temperature;BME280_humidity;BME280_pressure;Samples;Min_cycle;Max_cycle;Signal;HPM_P1;HPM_P2
2023/05/04 00:01:22;;;;;;;13.18;9.57;;;;;;;;;;5010869;28;20123;-96
2023/05/04 00:03:54;;;;;;;12.57;9.00;;;;;;;;;;4986734;28;20069;-96
2023/05/04 00:06:23;;;;;;;14.53;9.93;;;;;;;;;;5018381;28;20046;-96
2023/05/04 00:09:12;;;;;;;13.07;9.60;;;;;;;;;;5002330;28;20089;-96
2023/05/04 00:11:41;;;;;;;12.98;9.48;;;;;;;;;;4952582;28;20070;-96
2023/05/04 00:16:56;;;;;;;14.68;10.57;;;;;;;;;;4998021;28;20034;-96
2023/05/04 00:19:31;;;;;;;15.98;10.75;;;;;;;;;;4999569;28;20479;-96
2023/05/04 00:22:07;;;;;;;;;;;;;;;;;;;;;
2023/05/04 00:24:39;;;;;;;16.60;10.80;;;;;;;;;;4979453;28;20027;-95
2023/05/04 00:27:07;;;;;;;16.60;10.55;;;;;;;;;;5006586;28;20042;-96
2023/05/04 00:35:28;;;;;;;15.57;9.75;;;;;;;;;;4995485;22;20056;-95
2023/05/04 00:37:57;;;;;;;19.42;10.02;;;;;;;;;;5000210;28;20544;-96
2023/05/04 00:40:28;;;;;;;14.07;9.82;;;;;;;;;;5002534;28;20033;-95
2023/05/04 00:43:01;;;;;;;18.95;10.63;;;;;;;;;;5003177;28;20037;-96
2023/05/04 00:45:56;;;;;;;13.20;9.70;;;;;;;;;;5020089;28;20042;-96
2023/05/04 00:48:33;;;;;;;17.70;10.60;;;;;;;;;;5018454;28;20046;-96
2023/05/04 00:51:05;;;;;;;17.98;10.95;;;;;;;;;;5020884;28;20485;-96
2023/05/04 00:53:33;;;;;;;18.85;10.60;;;;;;;;;;5021954;28;20025;-96
2023/05/04 00:56:18;;;;;;;15.50;11.40;;;;;;;;;;5015679;28;20018;-96
2023/05/04 00:58:58;;;;;;;;;;;;;;;;;;;;;
2023/05/04 01:01:27;;;;;;;17.83;10.95;;;;;;;;;;5019527;28;20534;-96
2023/05/04 01:03:58;;;;;;;15.82;11.50;;;;;;;;;;5001341;28;20022;-96
2023/05/04 01:06:26;;;;;;;17.92;11.70;;;;;;;;;;5017756;28;20071;-96
2023/05/04 01:09:16;;;;;;;18.95;12.20;;;;;;;;;;5002133;28;20034;-96
2023/05/04 01:11:52;;;;;;;15.52;11.20;;;;;;;;;;5026282;28;20029;-96
2023/05/04 01:14:22;;;;;;;18.08;12.20;;;;;;;;;;5022980;28;20036;-96
2023/05/04 01:20:08;;;;;;;18.07;11.20;;;;;;;;;;5022233;28;20042;-95
2023/05/04 01:22:45;;;;;;;17.65;11.27;;;;;;;;;;5003420;28;20502;-96
2023/05/04 01:25:11;;;;;;;18.75;12.68;;;;;;;;;;5015267;28;20034;-96
2023/05/04 01:28:01;;;;;;;21.10;12.55;;;;;;;;;;5017404;28;20061;-96
2023/05/04 01:30:40;;;;;;;22.48;13.15;;;;;;;;;;4983780;28;20034;-96
2023/05/04 01:33:29;;;;;;;23.15;13.50;;;;;;;;;;5026121;28;20036;-96
2023/05/04 01:35:58;;;;;;;19.10;12.52;;;;;;;;;;5003926;28;20479;-96
2023/05/04 01:38:27;;;;;;;20.50;13.95;;;;;;;;;;5004455;28;20025;-96
2023/05/04 01:40:53;;;;;;;22.90;14.15;;;;;;;;;;5001651;28;20881;-96
2023/05/04 01:43:29;;;;;;;;;;;;;;;;;;;;;
2023/05/04 01:46:12;;;;;;;21.13;13.35;;;;;;;;;;5040265;28;20081;-96
2023/05/04 01:48:38;;;;;;;22.35;13.70;;;;;;;;;;5023445;28;20064;-96
2023/05/04 01:51:07;;;;;;;23.90;14.07;;;;;;;;;;5021404;28;20025;-95
2023/05/04 01:53:33;;;;;;;19.98;14.00;;;;;;;;;;5021831;28;20021;-96
2023/05/04 01:56:02;;;;;;;22.73;14.65;;;;;;;;;;5020787;28;20021;-95
2023/05/04 01:58:28;;;;;;;23.15;14.88;;;;;;;;;;5021351;28;20032;-96
2023/05/04 02:00:58;;;;;;;23.48;14.57;;;;;;;;;;5009485;28;20034;-96
2023/05/04 02:03:30;;;;;;;24.48;14.68;;;;;;;;;;5001545;28;20140;-96
2023/05/04 02:05:56;;;;;;;23.10;14.27;;;;;;;;;;5005361;28;20029;-96
2023/05/04 02:08:32;;;;;;;;;;;;;;;;;;;;;
2023/05/04 02:10:58;;;;;;;23.10;14.52;;;;;;;;;;5030620;28;20029;-96
2023/05/04 02:13:27;;;;;;;25.17;15.63;;;;;;;;;;5015437;28;20026;-96
2023/05/04 02:15:55;;;;;;;26.30;14.55;;;;;;;;;;5000391;28;20041;-96
2023/05/04 02:18:22;;;;;;;22.58;14.75;;;;;;;;;;5009047;28;20041;-96
2023/05/04 02:20:50;;;;;;;23.23;14.38;;;;;;;;;;5010734;28;20457;-96
2023/05/04 02:23:19;;;;;;;23.60;14.73;;;;;;;;;;5002791;28;20026;-96
2023/05/04 02:25:50;;;;;;;25.92;14.88;;;;;;;;;;5001399;28;20026;-96
2023/05/04 02:28:16;;;;;;;25.30;14.57;;;;;;;;;;5001877;28;20050;-96
2023/05/04 02:30:45;;;;;;;24.20;14.27;;;;;;;;;;5002355;28;20475;-96
2023/05/04 02:33:11;;;;;;;26.98;15.65;;;;;;;;;;5003789;28;20084;-96
2023/05/04 02:35:40;;;;;;;21.08;14.00;;;;;;;;;;5005943;28;20054;-96
2023/05/04 02:38:06;;;;;;;26.40;14.55;;;;;;;;;;5017078;28;20026;-96
2023/05/04 02:40:32;;;;;;;21.38;14.00;;;;;;;;;;5011708;28;20065;-95
2023/05/04 02:42:58;;;;;;;21.55;14.85;;;;;;;;;;5026886;28;20030;-96
2023/05/04 02:48:42;;;;;;;26.02;14.95;;;;;;;;;;4938708;29;20062;-96
2023/05/04 02:51:08;;;;;;;27.30;15.52;;;;;;;;;;4936168;28;20505;-96
2023/05/04 02:53:35;;;;;;;27.83;16.02;;;;;;;;;;5002683;28;20030;-96
2023/05/04 02:56:01;;;;;;;22.98;14.95;;;;;;;;;;5019407;28;20025;-96
2023/05/04 02:58:39;;;;;;;;;;;;;;;;;;;;;
2023/05/04 03:01:08;;;;;;;27.70;16.17;;;;;;;;;;5023026;28;20028;-96
2023/05/04 03:03:35;;;;;;;23.58;16.20;;;;;;;;;;5020463;28;20030;-95
2023/05/04 03:06:01;;;;;;;24.23;15.75;;;;;;;;;;5020041;28;20540;-96
2023/05/04 03:08:35;;;;;;;26.33;16.48;;;;;;;;;;5020882;28;20161;-96
2023/05/04 03:11:01;;;;;;;27.38;16.08;;;;;;;;;;5018864;28;20036;-96
2023/05/04 03:13:27;;;;;;;27.30;16.90;;;;;;;;;;5018952;28;20025;-96
2023/05/04 03:15:53;;;;;;;23.83;16.20;;;;;;;;;;5017183;28;20486;-96
2023/05/04 03:18:22;;;;;;;29.70;16.95;;;;;;;;;;4999343;28;20026;-96
2023/05/04 03:20:48;;;;;;;29.73;16.98;;;;;;;;;;4995708;28;20389;-96
2023/05/04 03:23:14;;;;;;;35.28;17.20;;;;;;;;;;5010853;28;20037;-96
2023/05/04 03:25:41;;;;;;;25.08;17.45;;;;;;;;;;5010879;28;20041;-96
2023/05/04 03:28:07;;;;;;;30.38;17.02;;;;;;;;;;5007300;28;20101;-96
2023/05/04 03:30:33;;;;;;;25.80;15.60;;;;;;;;;;5031230;28;20077;-96
2023/05/04 03:33:01;;;;;;;26.08;15.63;;;;;;;;;;5024804;28;20030;-96
2023/05/04 03:35:28;;;;;;;19.90;13.45;;;;;;;;;;5016641;28;20045;-96
2023/05/04 03:37:54;;;;;;;23.23;15.60;;;;;;;;;;5015352;28;20390;-96
2023/05/04 03:40:23;;;;;;;27.30;15.88;;;;;;;;;;5013001;28;20022;-94
2023/05/04 03:42:52;;;;;;;26.80;16.10;;;;;;;;;;5003391;28;20033;-96
2023/05/04 03:45:18;;;;;;;25.45;15.70;;;;;;;;;;5016269;28;20022;-96
2023/05/04 03:47:44;;;;;;;23.88;14.45;;;;;;;;;;5015807;28;20470;-96
2023/05/04 03:50:28;;;;;;;24.17;14.32;;;;;;;;;;5015178;28;20029;-96
2023/05/04 03:52:54;;;;;;;22.20;14.10;;;;;;;;;;5016069;28;20126;-96
2023/05/04 03:55:21;;;;;;;23.63;15.57;;;;;;;;;;5015562;28;20502;-96
2023/05/04 03:57:49;;;;;;;22.10;14.45;;;;;;;;;;5014840;28;20053;-96
2023/05/04 04:00:21;;;;;;;22.70;14.15;;;;;;;;;;5000672;28;20061;-95
2023/05/04 04:02:47;;;;;;;24.30;14.27;;;;;;;;;;4996048;28;20597;-96
2023/05/04 04:05:13;;;;;;;25.45;14.43;;;;;;;;;;5001555;28;20121;-96
2023/05/04 04:07:52;;;;;;;;;;;;;;;;;;;;;
2023/05/04 04:10:56;;;;;;;21.17;14.20;;;;;;;;;;4963642;28;20035;-95
2023/05/04 04:13:22;;;;;;;;;;;;;;;;;;4966810;28;20038;-94
2023/05/04 04:15:49;;;;;;;18.38;12.10;;;;;;;;;;5000314;28;19909;-95
2023/05/04 04:18:15;;;;;;;22.30;13.15;;;;;;;;;;5000590;28;20041;-95
2023/05/04 04:20:41;;;;;;;21.30;13.43;;;;;;;;;;4999970;28;20057;-95
2023/05/04 04:23:07;;;;;;;27.50;14.43;;;;;;;;;;5000396;28;20030;-95
2023/05/04 04:25:34;;;;;;;19.40;12.73;;;;;;;;;;4999497;28;20036;-95
2023/05/04 04:28:00;;;;;;;16.92;11.15;;;;;;;;;;4999913;28;20046;-95
2023/05/04 04:30:26;;;;;;;18.30;12.25;;;;;;;;;;5000062;28;20510;-95
2023/05/04 04:32:53;;;;;;;16.83;12.10;;;;;;;;;;4999712;28;20026;-94
2023/05/04 04:35:19;;;;;;;18.13;11.95;;;;;;;;;;4999442;28;20078;-94
2023/05/04 04:37:52;;;;;;;19.02;11.43;;;;;;;;;;4985169;28;20034;-95
2023/05/04 04:40:18;;;;;;;17.40;10.82;;;;;;;;;;5011085;23;20391;-94
2023/05/04 04:42:44;;;;;;;16.65;11.15;;;;;;;;;;5036538;28;20032;-94
2023/05/04 04:45:10;;;;;;;14.73;9.13;;;;;;;;;;5037639;28;20033;-96
2023/05/04 04:47:38;;;;;;;13.60;9.00;;;;;;;;;;5037139;28;20033;-96
2023/05/04 04:50:05;;;;;;;13.85;8.20;;;;;;;;;;5029519;28;20032;-96
2023/05/04 04:52:32;;;;;;;13.15;9.07;;;;;;;;;;5017238;28;20503;-96
2023/05/04 04:54:58;;;;;;;15.20;9.63;;;;;;;;;;5022120;28;20121;-95
2023/05/04 04:57:31;;;;;;;12.27;8.30;;;;;;;;;;5041660;28;20026;-96
2023/05/04 04:59:57;;;;;;;11.27;7.88;;;;;;;;;;5021304;28;20038;-96
2023/05/04 05:02:23;;;;;;;11.43;8.25;;;;;;;;;;5018042;28;20037;-96
2023/05/04 05:04:49;;;;;;;13.35;8.10;;;;;;;;;;5017986;28;20674;-95
2023/05/04 05:07:15;;;;;;;12.05;8.50;;;;;;;;;;5019876;28;20026;-96
2023/05/04 05:09:42;;;;;;;11.20;7.78;;;;;;;;;;5020201;28;20038;-96
2023/05/04 05:12:08;;;;;;;13.18;8.77;;;;;;;;;;5020790;28;20021;-96
2023/05/04 05:23:58;;;;;;;12.98;7.90;;;;;;;;;;5130684;22;20131;-96
2023/05/04 05:26:40;;;;;;;11.15;8.07;;;;;;;;;;5044529;28;20424;-96
2023/05/04 05:31:54;;;;;;;14.77;7.15;;;;;;;;;;5060362;23;20406;-96
2023/05/04 05:34:43;;;;;;;;;;;;;;;;;;;;;
2023/05/04 05:56:10;;;;;;;12.65;6.43;;;;;;;;;;4985008;28;20054;-96
2023/05/04 06:06:48;;;;;;;8.10;5.68;;;;;;;;;;5198081;22;20057;-96
2023/05/04 06:22:13;;;;;;;9.38;4.80;;;;;;;;;;5170779;22;20090;-96
2023/05/04 06:24:40;;;;;;;6.20;4.07;;;;;;;;;;5063070;28;20050;-95
2023/05/04 06:27:06;;;;;;;6.97;4.43;;;;;;;;;;5047751;28;20393;-94
2023/05/04 06:29:41;;;;;;;7.43;4.88;;;;;;;;;;5040497;28;20037;-94
2023/05/04 06:32:11;;;;;;;6.18;4.00;;;;;;;;;;5039477;28;20025;-93
2023/05/04 06:34:37;;;;;;;7.97;4.78;;;;;;;;;;5041509;28;20493;-92
2023/05/04 06:37:06;;;;;;;7.35;4.38;;;;;;;;;;5040082;28;20030;-96
2023/05/04 06:40:04;;;;;;;6.15;4.55;;;;;;;;;;5056562;28;20036;-94
2023/05/04 06:42:54;;;;;;;7.53;4.38;;;;;;;;;;5061294;28;20040;-94
2023/05/04 06:45:20;;;;;;;5.63;4.10;;;;;;;;;;5057012;28;20068;-94
2023/05/04 06:54:36;;;;;;;7.70;4.47;;;;;;;;;;4891024;29;20040;-96
2023/05/04 06:59:53;;;;;;;7.15;5.25;;;;;;;;;;5789518;22;20888;-96
2023/05/04 07:05:49;;;;;;;5.53;3.88;;;;;;;;;;5016544;22;20057;-96
2023/05/04 07:10:51;;;;;;;6.10;4.25;;;;;;;;;;5728308;22;20052;-94
2023/05/04 07:21:20;;;;;;;6.53;4.03;;;;;;;;;;5895898;22;20049;-96
2023/05/04 07:51:19;;;;;;;7.53;4.03;;;;;;;;;;4908238;29;20067;-96
2023/05/04 09:20:18;;;;;;;8.02;4.50;;;;;;;;;;4150285;23;20023;31
2023/05/04 09:23:17;;;;;;;8.27;5.30;;;;;;;;;;5180899;23;20023;-95
2023/05/04 09:26:01;;;;;;;6.10;5.03;;;;;;;;;;5514928;23;20060;-94
2023/05/04 09:31:17;;;;;;;8.82;5.97;;;;;;;;;;4918047;23;20490;-94
2023/05/04 09:33:53;;;;;;;7.50;5.55;;;;;;;;;;4907743;29;20052;-94
2023/05/04 09:38:52;;;;;;;6.97;5.93;;;;;;;;;;5326281;23;20052;-94
2023/05/04 09:47:22;;;;;;;8.25;6.68;;;;;;;;;;3926856;23;21301;-96
2023/05/04 11:54:25;;;;;;;5.30;4.57;;;;;;;;;;5972834;23;20027;31
2023/05/04 11:56:57;;;;;;;5.75;4.45;;;;;;;;;;4853962;29;20061;-96
2023/05/04 12:39:38;;;;;;;12.77;5.00;;;;;;;;;;4898076;29;20072;-96
2023/05/04 12:59:15;;;;;;;31.42;9.13;;;;;;;;;;5337666;23;20076;-96
2023/05/04 13:04:49;;;;;;;7.87;4.87;;;;;;;;;;4839420;29;20035;-96
2023/05/04 13:12:48;;;;;;;8.07;5.38;;;;;;;;;;4931068;28;20048;-96
2023/05/04 13:15:26;;;;;;;9.32;5.30;;;;;;;;;;4929472;29;20036;-96
2023/05/04 13:18:27;;;;;;;7.97;5.53;;;;;;;;;;4927903;29;20090;-96
2023/05/04 13:26:52;;;;;;;7.43;5.28;;;;;;;;;;4944779;23;20108;-96
2023/05/04 13:29:24;;;;;;;7.10;4.97;;;;;;;;;;4921844;29;20386;-96
2023/05/04 13:41:13;;;;;;;7.80;5.55;;;;;;;;;;4894327;29;20075;-96
2023/05/04 13:43:51;;;;;;;7.50;5.53;;;;;;;;;;4868023;29;20033;-93
2023/05/04 14:01:48;;;;;;;9.65;5.78;;;;;;;;;;4790787;30;20063;-94
2023/05/04 14:04:15;;;;;;;9.27;6.20;;;;;;;;;;4791884;30;20019;-95
2023/05/04 14:07:00;;;;;;;6.75;5.95;;;;;;;;;;4782430;29;20047;-94
2023/05/04 14:09:38;;;;;;;8.57;6.03;;;;;;;;;;4777719;30;20055;-95
2023/05/04 14:12:10;;;;;;;6.85;5.53;;;;;;;;;;4777955;30;20490;-96
2023/05/04 14:30:11;;;;;;;7.50;5.82;;;;;;;;;;5723182;23;20059;-93
2023/05/04 14:32:44;;;;;;;8.82;5.90;;;;;;;;;;4918416;29;20028;-92
2023/05/04 14:35:33;;;;;;;7.65;6.18;;;;;;;;;;4922039;29;20041;-94
2023/05/04 14:38:02;;;;;;;6.95;5.95;;;;;;;;;;4917767;29;20032;-92
2023/05/04 14:59:18;;;;;;;;;;;;;;;;;;;;;
2023/05/04 15:44:49;;;;;;;7.13;5.97;;;;;;;;;;4962598;23;20077;-96
2023/05/04 16:19:48;;;;;;;6.90;6.20;;;;;;;;;;4959624;23;20050;-96
2023/05/04 17:01:13;;;;;;;12.00;6.55;;;;;;;;;;4888137;29;20061;-95
2023/05/04 17:04:11;;;;;;;8.70;6.97;;;;;;;;;;4891410;29;20104;-96
2023/05/04 17:06:44;;;;;;;9.73;6.30;;;;;;;;;;4877038;29;20029;-96
2023/05/04 17:17:49;;;;;;;10.60;7.25;;;;;;;;;;5287965;23;20056;-96
2023/05/04 17:23:24;;;;;;;8.80;7.25;;;;;;;;;;4853515;29;20029;-96
2023/05/04 17:34:14;;;;;;;27.30;7.32;;;;;;;;;;4924848;29;20043;-96
2023/05/04 17:43:39;;;;;;;9.90;7.90;;;;;;;;;;4832657;29;20118;-96
2023/05/04 17:58:22;;;;;;;12.13;5.72;;;;;;;;;;5415855;23;20294;-96
2023/05/04 18:12:25;;;;;;;12.57;6.63;;;;;;;;;;5213822;23;20052;-96
2023/05/04 18:15:15;;;;;;;8.80;6.80;;;;;;;;;;4905228;29;20028;-96
2023/05/04 18:18:17;;;;;;;10.32;6.65;;;;;;;;;;4902952;29;20035;-96
2023/05/04 18:20:46;;;;;;;10.75;6.78;;;;;;;;;;4847242;29;20058;-96
2023/05/04 18:29:37;;;;;;;13.37;7.10;;;;;;;;;;4927941;29;20050;-95
2023/05/04 18:32:15;;;;;;;9.05;6.90;;;;;;;;;;4892538;29;20025;-95
2023/05/04 18:34:56;;;;;;;8.73;6.57;;;;;;;;;;4871448;29;20084;-96
2023/05/04 18:40:23;;;;;;;10.43;6.85;;;;;;;;;;4903896;29;20045;-95
2023/05/04 18:42:55;;;;;;;12.55;6.60;;;;;;;;;;4891457;29;20047;-96
2023/05/04 18:45:36;;;;;;;9.68;6.95;;;;;;;;;;4937408;23;20776;-96
2023/05/04 18:48:04;;;;;;;8.70;6.40;;;;;;;;;;4899536;29;20052;-96
2023/05/04 18:50:33;;;;;;;9.30;6.90;;;;;;;;;;4901246;29;20032;-96
2023/05/04 18:53:04;;;;;;;11.98;7.35;;;;;;;;;;4900115;29;20123;-96
2023/05/04 18:55:43;;;;;;;;;;;;;;;;;;;;;
2023/05/04 18:58:27;;;;;;;8.82;6.43;;;;;;;;;;4861516;29;20033;-95
2023/05/04 19:01:27;;;;;;;;;;;;;;;;;;;;;
2023/05/04 19:03:57;;;;;;;10.80;7.55;;;;;;;;;;4862524;29;20035;-95
2023/05/04 19:06:44;;;;;;;10.00;7.68;;;;;;;;;;4861205;29;20053;-95
2023/05/04 19:09:19;;;;;;;11.40;7.22;;;;;;;;;;4889910;29;20040;-95
2023/05/04 19:11:48;;;;;;;14.02;7.38;;;;;;;;;;4899811;29;20032;-95
2023/05/04 19:14:17;;;;;;;10.65;7.38;;;;;;;;;;4898925;29;20028;-95
2023/05/04 19:16:52;;;;;;;10.07;7.63;;;;;;;;;;4902852;29;20035;-96
2023/05/04 19:19:24;;;;;;;11.15;7.57;;;;;;;;;;4898182;29;20041;-95
2023/05/04 19:21:57;;;;;;;10.98;8.00;;;;;;;;;;4899091;29;20035;-95
2023/05/04 19:24:36;;;;;;;12.70;7.53;;;;;;;;;;4899134;29;20379;-96
2023/05/04 19:27:09;;;;;;;11.30;7.80;;;;;;;;;;4898596;29;20390;-94
2023/05/04 19:29:38;;;;;;;12.48;8.10;;;;;;;;;;4900332;29;20061;-94
2023/05/04 19:32:23;;;;;;;;;;;;;;;;;;;;;
2023/05/04 19:34:50;;;;;;;10.93;8.10;;;;;;;;;;4861448;29;20041;-96
2023/05/04 19:37:48;;;;;;;;;;;;;;;;;;;;;
2023/05/04 19:40:22;;;;;;;12.63;9.25;;;;;;;;;;4900499;29;20043;-96
2023/05/04 19:42:54;;;;;;;16.42;9.48;;;;;;;;;;4898866;29;20031;-94
2023/05/04 19:55:10;;;;;;;11.98;8.38;;;;;;;;;;4863238;29;19918;-94
2023/05/04 20:04:12;;;;;;;;;;;;;;;;;;;;;
2023/05/04 20:07:09;;;;;;;13.65;9.63;;;;;;;;;;4880911;29;20394;-95
2023/05/04 20:13:08;;;;;;;12.45;9.55;;;;;;;;;;4859366;29;20037;-96
2023/05/04 20:15:52;;;;;;;15.00;10.30;;;;;;;;;;4883491;23;20168;-96
2023/05/04 20:18:25;;;;;;;15.80;10.25;;;;;;;;;;4876042;29;20040;-95
2023/05/04 20:20:51;;;;;;;16.65;11.32;;;;;;;;;;4887874;29;20032;-96
2023/05/04 20:26:45;;;;;;;16.10;10.27;;;;;;;;;;4847968;29;20046;-96
2023/05/04 20:29:36;;;;;;;15.38;10.60;;;;;;;;;;4830224;29;20038;-96
2023/05/04 20:32:46;;;;;;;;;;;;;;;;;;;;;
2023/05/04 20:41:21;;;;;;;15.70;11.30;;;;;;;;;;4822750;29;20049;-96
2023/05/04 20:46:50;;;;;;;23.13;12.20;;;;;;;;;;4840464;29;20181;-95
2023/05/04 20:49:48;;;;;;;19.40;11.45;;;;;;;;;;4849927;29;20029;-94
2023/05/04 20:52:17;;;;;;;17.67;11.52;;;;;;;;;;4843069;29;20480;-96
2023/05/04 21:01:22;;;;;;;18.05;10.85;;;;;;;;;;4917680;29;20073;-97
2023/05/04 21:07:14;;;;;;;20.00;12.82;;;;;;;;;;4818204;29;20034;-96
2023/05/04 21:12:57;;;;;;;21.02;12.13;;;;;;;;;;4852455;29;20371;-97
2023/05/04 21:15:43;;;;;;;19.95;11.00;;;;;;;;;;4905357;29;20065;-96
2023/05/04 21:18:47;;;;;;;;;;;;;;;;;;;;;
2023/05/04 21:21:39;;;;;;;16.63;9.93;;;;;;;;;;4909895;29;20124;-96
2023/05/04 21:24:51;;;;;;;;;;;;;;;;;;;;;
2023/05/04 21:27:28;;;;;;;;;;;;;;;;;;;;;
2023/05/04 21:36:09;;;;;;;14.77;8.93;;;;;;;;;;4834692;29;20473;-96
2023/05/04 21:38:55;;;;;;;14.65;9.73;;;;;;;;;;4841197;29;20079;-95
2023/05/04 21:44:51;;;;;;;18.38;8.38;;;;;;;;;;4834321;29;20037;-96
2023/05/04 21:47:55;;;;;;;14.93;8.90;;;;;;;;;;4801498;29;20459;-96
2023/05/04 21:57:13;;;;;;;;;;;;;;;;;;;;;
2023/05/04 21:59:39;;;;;;;14.38;9.98;;;;;;;;;;4872776;29;20113;-95
2023/05/04 22:08:45;;;;;;;14.75;9.10;;;;;;;;;;4845557;29;20041;-96
2023/05/04 22:11:30;;;;;;;13.63;9.35;;;;;;;;;;4850448;29;20049;-96
2023/05/04 22:17:36;;;;;;;15.45;10.75;;;;;;;;;;4825774;29;20052;-96
2023/05/04 22:26:27;;;;;;;21.63;13.32;;;;;;;;;;4809945;29;20039;-96
2023/05/04 22:34:44;;;;;;;20.77;13.32;;;;;;;;;;4821935;29;20480;-96
2023/05/04 22:37:38;;;;;;;19.15;11.63;;;;;;;;;;4828159;29;20041;-96
2023/05/04 22:43:00;;;;;;;22.73;13.77;;;;;;;;;;4905735;29;20048;-95
2023/05/04 22:49:13;;;;;;;21.30;13.10;;;;;;;;;;4829425;29;20140;-95
2023/05/04 22:52:01;;;;;;;21.95;13.55;;;;;;;;;;4822454;29;20569;-96
2023/05/04 22:54:50;;;;;;;17.58;11.75;;;;;;;;;;4902050;29;20394;-96
2023/05/04 22:57:26;;;;;;;;;;;;;;;;;;;;;
2023/05/04 23:00:08;;;;;;;18.05;11.95;;;;;;;;;;4909035;29;20100;-96
2023/05/04 23:02:38;;;;;;;17.27;11.68;;;;;;;;;;4918467;29;20076;-91
2023/05/04 23:08:17;;;;;;;16.63;10.98;;;;;;;;;;4875129;29;20758;-96
2023/05/04 23:10:46;;;;;;;14.02;9.55;;;;;;;;;;4901937;29;20069;-96
2023/05/04 23:16:36;;;;;;;;;;;;;;;;;;;;;
2023/05/04 23:19:29;;;;;;;;;;;;;;;;;;;;;
2023/05/04 23:21:56;;;;;;;15.75;10.55;;;;;;;;;;4952514;23;20147;-93
2023/05/04 23:27:38;;;;;;;20.02;10.43;;;;;;;;;;4919718;29;20032;-95
2023/05/04 23:30:07;;;;;;;16.70;10.15;;;;;;;;;;4909991;28;20036;-96
2023/05/04 23:32:33;;;;;;;14.88;9.73;;;;;;;;;;4906236;29;20055;-94
2023/05/04 23:35:26;;;;;;;16.17;10.18;;;;;;;;;;4906208;29;20079;-96
2023/05/04 23:37:53;;;;;;;16.23;10.25;;;;;;;;;;4902899;29;20032;-95
2023/05/04 23:40:27;;;;;;;18.27;10.38;;;;;;;;;;4902678;29;20138;-94
2023/05/04 23:46:01;;;;;;;15.43;11.15;;;;;;;;;;4852662;29;20047;-95
2023/05/04 23:48:28;;;;;;;20.50;11.48;;;;;;;;;;4912535;29;20036;-94
2023/05/04 23:54:04;;;;;;;16.27;9.93;;;;;;;;;;4904026;29;20032;-96
2023/05/04 23:56:32;;;;;;;19.83;12.05;;;;;;;;;;4905270;29;20032;-96
2023/05/04 23:58:58;;;;;;;17.50;11.55;;;;;;;;;;4907952;29;20047;-96
